Terminal Aerodrome Forecast
Issued by NWS Midland/Odessa, TX

Home | Current Version | Previous Version | Text Only | Print | Product List | Glossary On
Versions: 1 2 3 4 5 6 7 8 9 10 11 12 13
941
FTUS44 KMAF 241720
TAFMAF
TAF
KMAF 241720Z 2418/2518 21015G22KT P6SM SCT250
     FM250100 18017G22KT P6SM FEW250
     FM250700 22015G20KT P6SM FEW250
     FM251500 25015G25KT P6SM SCT250=

USA.gov is the U.S. government's official web portal to all federal, state and local government web resources and services.